Tropical Cyclones
[Index]
Main Index Home Page Stock Weather Photos Extreme Storms Discussion Storm News and Storm Chasing Reports Tropical Cyclones / Hurricanes / Typhoons Weather Data and Links Wild Fires / Bushfires Weather Observation Techniques Weather Picture Catalogue Tornado Pictures and Reports Stock Video Footage and DVDs for sale
Season 1998-1999 Tropical Cyclone CHIKITA Track Map
Season 1998-1999 Summaries (Operational Data): [AU] [SIO] [SPAC] [SH]
<<- Previous TC | 1998-1999 Season | Next TC ->>

click for intensity scale information  Lat/long Grid: Show Hide

 Date Labels: Show Hide

Operational Tropical Cyclone Data : JTWC Advisories

Name: CHIKITA
Number: 9917

24 Jan 1999 18:00 UTC to 05 Feb 1999 06:00 UTC

    date/time    lat    long     hPa   cat  kts
1999-01-24 18    5.0    97.0    1005                     
1999-01-25 18    5.0    96.0    1005                     
1999-01-26 18    7.0    98.0    1004                     
1999-01-28 18   13.0    99.0                             
1999-01-29 12   14.2    95.2    1001         20          
1999-01-29 18   14.4    94.3    1001         20          
1999-01-30 00   14.5    93.6    1001         20          
1999-01-30 06   15.0    93.0    1000         20          
1999-01-30 12   15.5    92.3     999         25          
1999-01-30 18   16.1    90.2     999         25          
1999-01-31 00   16.7    88.1     999         25          
1999-01-31 06   17.0    86.1     995         30          
1999-01-31 12   17.2    83.7     990    1    37          
1999-01-31 18   17.9    82.0     990    1    37          
1999-02-01 00   18.4    80.7     990    1    37          
1999-02-01 06   18.9    79.1     992    1    35          
1999-02-01 12   19.4    77.5     996         30          
1999-02-01 18   19.3    75.8     998         28          
1999-02-02 00   19.3    73.8     998         28          
1999-02-02 06   19.4    71.7     998         28          
1999-02-02 12   19.4    69.3     998         28          
1999-02-02 18   19.3    67.1     997         30          
1999-02-03 00   19.2    64.7     997         30          
1999-02-03 06   18.7    62.8     997         30          
1999-02-03 12   18.3    61.3     997         30          
1999-02-03 18   18.2    59.3     998         28          
1999-02-04 00   18.4    57.4     999         25          
1999-02-04 06   18.6    56.1    1000         25          
1999-02-04 12   19.5    54.6    1000         25          
1999-02-04 18   19.7    53.0    1000         25          
1999-02-05 00   19.9    51.7    1002         20          
1999-02-05 06   20.3    50.6    1004         20          
Winds are 10-min average.

Tropical cyclone tracks developed by Michael Bath using operational warnings and advisories and Google Maps.


[Australian Severe Weather index] [Copyright Notice] [Email Contacts] [Search This Site] [Privacy Policy]
Document: tropical_cyclone_chikita.htm Updated: 28 May 2013